Terminal Aerodrome Forecast
Issued by NWS Memphis, TN

Home | Current Version | Previous Version | Text Only | Print | Product List | Glossary On
Versions: 1 2 3 4 5 6 7 8 9 10 11 12 13 14 15 16
000
FTUS44 KMEG 252333
TAFJBR
TAF
KJBR 252333Z 2600/2624 03005KT P6SM VCSH SCT035 OVC060
     FM260200 VRB03KT 5SM -RA BR SCT015 OVC035
     FM260500 VRB05KT 5SM -RA BR SCT009 OVC012
     FM261600 01010KT P6SM VCSH BKN015 OVC035
     FM261800 36008KT P6SM OVC015
     FM262100 01007KT P6SM BKN050=

USA.gov is the U.S. government's official web portal to all federal, state and local government web resources and services.